Flight Track Log - Related Links

Times and Time Zones

All times are in EDT time to prevent confusion due to time zone crossing. See the AAL1053 flight status page for this flight to view local times or setup timezone preferences in your user account.

Time Position Orientation Groundspeed Altitude Reporting Facility
EDT Latitude Longitude Course Direction KTS MPH feet Rate Location/Type
Fri 11:51:00 PM 32.6833 -97.2080 270° West  Level FlightAware Approximate
Fri 11:52:00 PM 32.6898 -97.3339 275° West  Level FlightAware Approximate
Fri 11:53:00 PM 32.6995 -97.4597 275° West  Level FlightAware Approximate
Fri 11:54:00 PM 32.7092 -97.5855 275° West  Level FlightAware Approximate
Fri 11:55:00 PM 32.7167 -97.7114 270° West  Level FlightAware Approximate
Fri 11:56:00 PM 32.7167 -97.8377 270° West  Level FlightAware Approximate
Fri 11:57:00 PM 32.7167 -97.9640 270° West  Level FlightAware Approximate
Fri 11:58:00 PM 32.7046 -98.0889 259° West  Level FlightAware Approximate
Fri 11:59:00 PM 32.6879 -98.2136 262° West  Level FlightAware Approximate
Sat 12:00:00 AM 32.6708 -98.3382 260° West  Level FlightAware Approximate
Sat 12:01:00 AM 32.6530 -98.4626 260° West  Level FlightAware Approximate
Sat 12:02:00 AM 32.6396 -98.5878 263° West  Level FlightAware Approximate
Sat 12:03:00 AM 32.6257 -98.7129 262° West  Level FlightAware Approximate
Sat 12:04:00 AM 32.6103 -98.8378 262° West  Level FlightAware Approximate
Sat 12:05:00 AM 32.5949 -98.9626 262° West  Level FlightAware Approximate
Sat 12:06:00 AM 32.5793 -99.0873 262° West  Level FlightAware Approximate
Sat 12:07:00 AM 32.5636 -99.2121 262° West  Level FlightAware Approximate
Sat 12:08:00 AM 32.5478 -99.3368 261° West  Level FlightAware Approximate
Sat 12:09:00 AM 32.5315 -99.4613 259° West  Level FlightAware Approximate
Sat 12:10:00 AM 32.5110 -99.5850 259° West  Level FlightAware Approximate
Sat 12:11:00 AM 32.4904 -99.7086 259° West  Level FlightAware Approximate
Sat 12:12:00 AM 32.4697 -99.8322 259° West  Level FlightAware Approximate
Sat 12:13:00 AM 32.4534 -99.9566 262° West  Level FlightAware Approximate
Sat 12:14:00 AM 32.4336 -100.0803 259° West  Level FlightAware Approximate
Sat 12:15:00 AM 32.4125 -100.2037 259° West  Level FlightAware Approximate
Sat 12:16:00 AM 32.3913 -100.3271 259° West  Level FlightAware Approximate
Sat 12:17:00 AM 32.3700 -100.4503 258° West  Level FlightAware Approximate
Sat 12:18:00 AM 32.3486 -100.5736 258° West  Level FlightAware Approximate
Sat 12:19:00 AM 32.3271 -100.6967 258° West  Level FlightAware Approximate
Sat 12:20:00 AM 32.3055 -100.8199 258° West  Level FlightAware Approximate
Sat 12:21:00 AM 32.2837 -100.9429 258° West  Level FlightAware Approximate
Sat 12:22:00 AM 32.2618 -101.0659 258° West  Level FlightAware Approximate
Sat 12:23:00 AM 32.2398 -101.1889 258° West  Level FlightAware Approximate
Sat 12:24:00 AM 32.2177 -101.3117 258° West  Level FlightAware Approximate
Sat 12:25:00 AM 32.1954 -101.4345 258° West  Level FlightAware Approximate
Sat 12:26:00 AM 32.1731 -101.5573 258° West  Level FlightAware Approximate
Sat 12:27:00 AM 32.1506 -101.6800 258° West  Level FlightAware Approximate
Sat 12:28:00 AM 32.1289 -101.8029 258° West  Level FlightAware Approximate
Sat 12:29:00 AM 32.1071 -101.9257 258° West  Level FlightAware Approximate
Sat 12:30:00 AM 32.0851 -102.0484 258° West  Level FlightAware Approximate
Sat 12:31:00 AM 32.0631 -102.1711 258° West  Level FlightAware Approximate
Sat 12:32:00 AM 32.0409 -102.2937 258° West  Level FlightAware Approximate
Sat 12:33:00 AM 32.0186 -102.4163 258° West  Level FlightAware Approximate
Sat 12:34:00 AM 31.9962 -102.5388 258° West  Level FlightAware Approximate
Sat 12:35:00 AM 31.9736 -102.6612 258° West  Level FlightAware Approximate
Sat 12:36:00 AM 31.9510 -102.7836 258° West  Level FlightAware Approximate
Sat 12:37:00 AM 31.9282 -102.9060 258° West  Level FlightAware Approximate
Sat 12:38:00 AM 31.9053 -103.0282 258° West  Level FlightAware Approximate
Sat 12:39:00 AM 31.8824 -103.1504 258° West  Level FlightAware Approximate
Sat 12:40:00 AM 31.8715 -103.2731 278° West  Level FlightAware Approximate
Sat 12:41:00 AM 31.8865 -103.3970 278° West  Level FlightAware Approximate
Sat 12:42:00 AM 31.9013 -103.5210 278° West  Level FlightAware Approximate
Sat 12:43:00 AM 31.9161 -103.6450 278° West  Level FlightAware Approximate
Sat 12:44:00 AM 31.9197 -103.7699 276° West  Level FlightAware Approximate
Sat 12:45:00 AM 31.9301 -103.8945 276° West  Level FlightAware Approximate
Sat 12:46:00 AM 31.9455 -104.0184 280° West  Level FlightAware Approximate
Sat 12:47:00 AM 31.9500 -104.1432 270° West  Level FlightAware Approximate
Sat 12:48:00 AM 31.9657 -104.2670 279° West  Level FlightAware Approximate
Sat 12:49:00 AM 31.9821 -104.3908 279° West  Level FlightAware Approximate
Sat 12:50:00 AM 31.9649 -104.5105 266° West  Level FlightAware Approximate
Sat 12:51:00 AM 31.9566 -104.6354 266° West  Level FlightAware Approximate
Sat 12:52:00 AM 31.9459 -104.7599 260° West  Level FlightAware Approximate
Sat 12:53:00 AM 31.9270 -104.8831 260° West  Level FlightAware Approximate
Sat 12:54:00 AM 31.9167 -105.0072 270° West  Level FlightAware Approximate
Sat 12:55:00 AM 31.9024 -105.1312 262° West  Level FlightAware Approximate
Sat 12:56:00 AM 31.8890 -105.2554 263° West  Level FlightAware Approximate
Sat 12:57:00 AM 31.8759 -105.3796 263° West  Level FlightAware Approximate
Sat 12:58:00 AM 31.8667 -105.5040 270° West  Level FlightAware Approximate
Sat 12:59:00 AM 31.8667 -105.6292 270° West  Level FlightAware Approximate
Sat 01:00:00 AM 31.8667 -105.7543 270° West  Level FlightAware Approximate
Sat 01:01:00 AM 31.8667 -105.8794 270° West  Level FlightAware Approximate
Sat 01:02:00 AM 31.8587 -106.0041 265° West  Level FlightAware Approximate
Sat 01:03:00 AM 31.8479 -106.1285 258° West  Level FlightAware Approximate
Sat 01:04:00 AM 31.8256 -106.2508 258° West  Level FlightAware Approximate
Sat 01:05:00 AM 31.8000 -106.3667 249° West  Level FlightAware Approximate
Sat 01:06:00 AM 31.8072 -106.3764 249° West  Level Estimated
Sat 01:07:00 AM 31.8072 -106.3764 249° West  Level Estimated
Sat 01:08:00 AM 31.8072 -106.3764 249° West  Level Estimated
Sat 01:09:00 AM 31.8072 -106.3764 249° West  Level Estimated
Sat 01:10:00 AM 31.8072 -106.3764 249° West  Level Estimated
Sat 01:11:00 AM 31.8072 -106.3764 249° West  Level Estimated
Sat 01:12:00 AM 31.8072 -106.3764 249° West  Level Estimated
Sat 01:13:00 AM 31.8072 -106.3764 249° West  Level Estimated
Sat 01:14:00 AM 31.8072 -106.3764 249° West  Level Estimated
Sat 01:15:00 AM 31.8072 -106.3764 249° West  Level Estimated

Login

Don't have an account? Register now (free) for customized features, flight alerts, and more!